Time;durP1;ratioP1;P1;durP2;ratioP2;P2;SDS_P1;SDS_P2;PMS_P1;PMS_P2;Temp;Humidity;BMP_temperature;BMP_pressure;BME280_temperature;BME280_humidity;BME280_pressure;Samples;Min_cycle;Max_cycle;Signal;HPM_P1;HPM_P2
2022/10/06 00:01:07;;;;;;;5.60;1.20;;;16.30;99.90;;;;;;4967015;28;20034;-88
2022/10/06 00:03:33;;;;;;;9.30;1.60;;;16.30;99.90;;;;;;4983562;28;20022;-88
2022/10/06 00:06:00;;;;;;;8.63;1.80;;;16.30;99.90;;;;;;4983255;28;20052;-88
2022/10/06 00:08:26;;;;;;;8.45;1.75;;;16.20;99.90;;;;;;4999423;28;20113;-90
2022/10/06 00:10:55;;;;;;;9.98;2.28;;;16.20;99.90;;;;;;5015336;28;20221;-88
2022/10/06 00:13:23;;;;;;;9.52;2.63;;;16.10;99.90;;;;;;4982971;28;20085;-87
2022/10/06 00:15:48;;;;;;;9.80;1.48;;;16.10;99.90;;;;;;4999165;28;20057;-88
2022/10/06 00:18:14;;;;;;;8.40;1.58;;;16.10;99.90;;;;;;5015136;28;20034;-87
2022/10/06 00:20:42;;;;;;;10.07;1.80;;;16.10;99.90;;;;;;4982667;28;20036;-87
2022/10/06 00:23:08;;;;;;;9.07;1.63;;;16.00;99.90;;;;;;4983403;28;20030;-88
2022/10/06 00:25:34;;;;;;;10.88;1.67;;;16.00;99.90;;;;;;4998728;28;20108;-89
2022/10/06 00:28:00;;;;;;;18.60;1.90;;;16.00;99.90;;;;;;5031186;28;20062;-88
2022/10/06 00:30:28;;;;;;;12.60;1.60;;;16.00;99.90;;;;;;4982787;28;20121;-88
2022/10/06 00:32:59;;;;;;;11.27;2.15;;;15.90;99.90;;;;;;4998770;28;20076;-88
2022/10/06 00:35:27;;;;;;;10.07;2.60;;;15.90;99.90;;;;;;4998831;28;20050;-88
2022/10/06 00:37:54;;;;;;;7.80;1.73;;;15.90;99.90;;;;;;5014778;28;20034;-88
2022/10/06 00:40:20;;;;;;;10.25;2.17;;;15.80;99.90;;;;;;4998351;28;20025;-87
2022/10/06 00:43:01;;;;;;;10.98;2.35;;;15.80;99.90;;;;;;5016028;28;20026;-88
2022/10/06 00:45:39;;;;;;;9.00;2.08;;;15.80;99.90;;;;;;4998524;28;20018;-87
2022/10/06 00:48:25;;;;;;;9.27;1.92;;;15.80;99.90;;;;;;4997715;28;20040;-86
2022/10/06 00:50:55;;;;;;;10.60;1.83;;;15.80;99.90;;;;;;5015911;28;20026;-90
2022/10/06 00:53:23;;;;;;;12.80;2.47;;;15.80;99.90;;;;;;5016599;28;20050;-86
2022/10/06 00:55:48;;;;;;;10.10;1.85;;;15.70;99.90;;;;;;5013659;28;20026;-87
2022/10/06 00:58:15;;;;;;;12.65;1.65;;;15.70;99.90;;;;;;5020671;28;20493;-87
2022/10/06 01:00:42;;;;;;;10.07;1.77;;;15.70;99.90;;;;;;5031712;28;20049;-87
2022/10/06 01:03:20;;;;;;;11.18;2.00;;;15.60;99.90;;;;;;4997310;28;20049;-88
2022/10/06 01:05:50;;;;;;;10.68;1.85;;;15.60;99.90;;;;;;5029180;28;20036;-87
2022/10/06 01:08:16;;;;;;;8.02;1.60;;;15.60;99.90;;;;;;5012567;28;20124;-87
2022/10/06 01:10:42;;;;;;;9.43;1.80;;;15.50;99.90;;;;;;5037480;28;20037;-85
2022/10/06 01:13:10;;;;;;;13.40;1.80;;;15.50;99.90;;;;;;4999230;28;20359;-85
2022/10/06 01:16:08;;;;;;;14.07;2.17;;;15.50;99.90;;;;;;5014066;28;20033;-86
2022/10/06 01:18:37;;;;;;;9.43;2.33;;;15.50;99.90;;;;;;4997339;28;20130;-86
2022/10/06 01:21:12;;;;;;;14.30;2.15;;;15.50;99.90;;;;;;5014937;28;20033;-86
2022/10/06 01:23:38;;;;;;;13.10;2.42;;;15.50;99.90;;;;;;5015342;28;20022;-86
2022/10/06 01:26:08;;;;;;;12.80;2.08;;;15.40;99.90;;;;;;5014242;28;20030;-87
2022/10/06 01:28:35;;;;;;;9.90;1.88;;;15.40;99.90;;;;;;4997322;28;20060;-84
2022/10/06 01:31:01;;;;;;;7.80;1.98;;;15.40;99.90;;;;;;4980906;28;20033;-86
2022/10/06 01:33:28;;;;;;;16.48;2.22;;;15.40;99.90;;;;;;5014677;28;20135;-86
2022/10/06 01:35:54;;;;;;;14.45;1.98;;;15.40;99.90;;;;;;5013808;28;20462;-86
2022/10/06 01:38:20;;;;;;;15.63;2.25;;;15.40;99.90;;;;;;4996673;28;20095;-86
2022/10/06 01:40:48;;;;;;;13.43;1.95;;;15.40;99.90;;;;;;4980889;28;20046;-87
2022/10/06 01:43:14;;;;;;;13.88;2.38;;;15.30;99.90;;;;;;4997573;28;20018;-87
2022/10/06 01:45:40;;;;;;;8.93;2.15;;;15.40;99.90;;;;;;5013750;28;20544;-85
2022/10/06 01:48:06;;;;;;;13.75;2.38;;;15.30;99.90;;;;;;5029670;28;20030;-87
2022/10/06 01:50:32;;;;;;;10.25;1.90;;;15.30;99.90;;;;;;4997196;28;20037;-86
2022/10/06 01:52:58;;;;;;;10.43;1.90;;;15.30;99.90;;;;;;4964853;28;20026;-86
2022/10/06 01:55:24;;;;;;;11.07;1.83;;;15.30;99.90;;;;;;4980753;28;20049;-86
2022/10/06 01:57:50;;;;;;;10.68;2.65;;;15.30;99.90;;;;;;4980609;28;20034;-85
2022/10/06 02:00:16;;;;;;;10.63;1.80;;;15.30;99.90;;;;;;5013281;28;20058;-86
2022/10/06 02:02:42;;;;;;;13.32;2.42;;;15.30;99.90;;;;;;5014164;28;20060;-86
2022/10/06 02:05:08;;;;;;;12.02;2.78;;;15.30;99.90;;;;;;4964754;28;20092;-86
2022/10/06 02:07:35;;;;;;;13.98;2.45;;;15.30;99.90;;;;;;4964433;28;20026;-86
2022/10/06 02:10:01;;;;;;;12.63;2.20;;;15.30;99.90;;;;;;5014278;28;20046;-89
2022/10/06 02:12:26;;;;;;;10.07;2.10;;;15.30;99.90;;;;;;4996688;28;20034;-86
2022/10/06 02:14:52;;;;;;;14.35;2.08;;;15.20;99.80;;;;;;5012889;28;20036;-87
2022/10/06 02:17:18;;;;;;;9.43;2.03;;;15.20;99.80;;;;;;4964177;28;20026;-85
2022/10/06 02:19:43;;;;;;;13.02;2.10;;;15.20;99.90;;;;;;4980752;28;20500;-85
2022/10/06 02:22:09;;;;;;;9.35;2.17;;;15.20;99.80;;;;;;4996223;28;20076;-86
2022/10/06 02:24:34;;;;;;;13.23;2.00;;;15.20;99.70;;;;;;4964170;28;20045;-85
2022/10/06 02:27:00;;;;;;;13.18;2.28;;;15.10;99.70;;;;;;4964282;28;20172;-86
2022/10/06 02:29:26;;;;;;;9.50;2.05;;;15.10;99.60;;;;;;4980339;28;20030;-86
2022/10/06 02:31:51;;;;;;;15.10;2.28;;;15.10;99.60;;;;;;4996842;28;20481;-86
2022/10/06 02:34:17;;;;;;;12.77;2.40;;;15.00;99.50;;;;;;4980334;28;20026;-86
2022/10/06 02:36:42;;;;;;;12.23;1.90;;;15.00;99.60;;;;;;4964233;28;20045;-86
2022/10/06 02:39:08;;;;;;;9.90;1.90;;;15.00;99.60;;;;;;5012820;28;20387;-86
2022/10/06 02:41:34;;;;;;;14.43;2.35;;;14.90;99.60;;;;;;5012580;28;20078;-86
2022/10/06 02:43:59;;;;;;;7.78;1.58;;;14.90;99.60;;;;;;5013968;28;20030;-86
2022/10/06 02:46:25;;;;;;;10.77;1.90;;;14.90;99.60;;;;;;5013944;28;20030;-86
2022/10/06 02:48:52;;;;;;;12.98;2.05;;;14.90;99.60;;;;;;5014088;28;20367;-86
2022/10/06 02:51:19;;;;;;;11.20;2.33;;;14.80;99.70;;;;;;4964444;28;20136;-86
2022/10/06 02:53:47;;;;;;;12.13;2.63;;;14.80;99.70;;;;;;5012479;28;20092;-87
2022/10/06 02:56:19;;;;;;;11.43;2.20;;;14.80;99.70;;;;;;4979718;28;20033;-86
2022/10/06 02:58:46;;;;;;;14.80;2.53;;;14.80;99.60;;;;;;4995783;28;20117;-85
2022/10/06 03:01:14;;;;;;;11.85;2.40;;;14.80;99.70;;;;;;4995343;28;20482;-86
2022/10/06 03:03:41;;;;;;;11.05;2.00;;;14.70;99.60;;;;;;5013717;28;20022;-87
2022/10/06 03:06:20;;;;;;;11.70;2.83;;;14.70;99.70;;;;;;5013143;28;20036;-87
2022/10/06 03:08:52;;;;;;;13.57;1.92;;;14.70;99.70;;;;;;4995684;28;20120;-87
2022/10/06 03:11:19;;;;;;;16.08;2.20;;;14.70;99.80;;;;;;5013587;28;20033;-88
2022/10/06 03:13:46;;;;;;;15.45;2.13;;;14.60;99.80;;;;;;5017384;28;20121;-88
2022/10/06 03:16:17;;;;;;;11.80;2.13;;;14.60;99.80;;;;;;4983646;28;20034;-87
2022/10/06 03:18:44;;;;;;;12.32;2.17;;;14.60;99.90;;;;;;4999186;28;20092;-86
2022/10/06 03:21:13;;;;;;;11.80;2.08;;;14.50;99.90;;;;;;5015730;28;20037;-86
2022/10/06 03:23:39;;;;;;;10.52;1.80;;;14.50;99.90;;;;;;4983571;28;20485;-86
2022/10/06 03:26:05;;;;;;;13.65;2.28;;;14.50;99.90;;;;;;4983303;28;20057;-86
2022/10/06 03:28:31;;;;;;;10.18;2.28;;;14.40;99.90;;;;;;4999142;28;20042;-86
2022/10/06 03:31:01;;;;;;;14.05;2.33;;;14.40;99.90;;;;;;4998847;28;20030;-85
2022/10/06 03:33:28;;;;;;;12.60;2.17;;;14.40;99.90;;;;;;4982926;28;20034;-85
2022/10/06 03:36:04;;;;;;;12.63;2.10;;;14.30;99.90;;;;;;5016926;28;20072;-86
2022/10/06 03:38:31;;;;;;;13.25;2.40;;;14.30;99.90;;;;;;4998535;28;20112;-86
2022/10/06 03:41:09;;;;;;;9.40;1.58;;;14.30;99.90;;;;;;5015022;28;20096;-85
2022/10/06 03:43:37;;;;;;;13.30;2.13;;;14.30;99.90;;;;;;4998913;28;20428;-86
2022/10/06 03:46:04;;;;;;;15.15;2.10;;;14.20;99.90;;;;;;4998821;28;20098;-86
2022/10/06 03:48:33;;;;;;;11.70;2.30;;;14.20;99.90;;;;;;5015020;28;20030;-87
2022/10/06 03:51:01;;;;;;;11.60;2.97;;;14.20;99.90;;;;;;4998861;28;20520;-86
2022/10/06 03:53:28;;;;;;;9.95;1.85;;;14.20;99.90;;;;;;4998703;28;20026;-86
2022/10/06 03:56:05;;;;;;;9.55;2.03;;;14.10;99.90;;;;;;4998965;28;20032;-86
2022/10/06 03:58:33;;;;;;;14.32;2.53;;;14.10;99.90;;;;;;4998460;28;20101;-86
2022/10/06 04:01:08;;;;;;;16.08;2.50;;;14.10;99.90;;;;;;4998415;28;20033;-86
2022/10/06 04:03:34;;;;;;;10.05;2.30;;;14.10;99.90;;;;;;4998514;28;20057;-86
2022/10/06 04:06:04;;;;;;;12.05;2.17;;;14.10;99.90;;;;;;4998626;28;20018;-86
2022/10/06 04:08:30;;;;;;;12.50;1.98;;;14.00;99.90;;;;;;4998392;28;20116;-86
2022/10/06 04:11:05;;;;;;;17.60;2.47;;;14.00;99.90;;;;;;5016149;28;20057;-86
2022/10/06 04:13:31;;;;;;;12.02;2.03;;;14.00;99.90;;;;;;5014629;28;20041;-86
2022/10/06 04:15:57;;;;;;;19.70;2.35;;;14.00;99.90;;;;;;4998671;28;20041;-86
2022/10/06 04:18:22;;;;;;;11.95;2.97;;;14.00;99.90;;;;;;4965829;28;20029;-86
2022/10/06 04:20:48;;;;;;;12.10;1.90;;;14.00;99.90;;;;;;5015632;28;20034;-86
2022/10/06 04:23:15;;;;;;;12.85;2.33;;;14.00;99.90;;;;;;4997343;28;20030;-86
2022/10/06 04:25:40;;;;;;;13.75;2.30;;;14.00;99.90;;;;;;5014519;28;20065;-86
2022/10/06 04:28:06;;;;;;;11.10;2.60;;;13.90;99.90;;;;;;5015432;28;20076;-86
2022/10/06 04:30:32;;;;;;;13.57;2.25;;;13.90;99.90;;;;;;4966065;28;20022;-86
2022/10/06 04:32:57;;;;;;;12.00;1.75;;;13.90;99.90;;;;;;4998171;28;20089;-86
2022/10/06 04:35:23;;;;;;;13.23;1.77;;;13.80;99.90;;;;;;5014248;28;20034;-87
2022/10/06 04:37:50;;;;;;;12.40;2.13;;;13.80;99.90;;;;;;4981819;28;20116;-86
2022/10/06 04:40:16;;;;;;;13.23;2.28;;;13.80;99.90;;;;;;5014296;28;20066;-86
2022/10/06 04:42:42;;;;;;;10.98;2.60;;;13.70;99.90;;;;;;5011738;28;20097;-86
2022/10/06 04:45:08;;;;;;;9.88;2.03;;;13.70;99.90;;;;;;4981574;28;20029;-86
2022/10/06 04:47:33;;;;;;;12.30;1.98;;;13.70;99.90;;;;;;4981061;28;20034;-86
2022/10/06 04:49:59;;;;;;;10.25;1.95;;;13.60;99.90;;;;;;4997602;28;20164;-86
2022/10/06 04:52:25;;;;;;;10.27;2.08;;;13.60;99.90;;;;;;4965192;28;20053;-86
2022/10/06 04:54:50;;;;;;;13.38;1.83;;;13.60;99.90;;;;;;4981582;28;20351;-86
2022/10/06 04:57:16;;;;;;;13.00;2.50;;;13.60;99.90;;;;;;4965331;28;20072;-86
2022/10/06 05:02:27;;;;;;;14.05;2.78;;;13.60;99.90;;;;;;5000022;28;20045;-87
2022/10/06 05:04:53;;;;;;;14.13;2.28;;;13.60;99.90;;;;;;4997593;28;20371;-86
2022/10/06 05:07:19;;;;;;;12.88;2.63;;;13.60;99.90;;;;;;4981263;28;20026;-86
2022/10/06 05:09:44;;;;;;;15.02;2.40;;;13.50;99.90;;;;;;4981075;28;20044;-85
2022/10/06 05:12:11;;;;;;;11.23;3.33;;;13.50;99.90;;;;;;4965347;28;20037;-85
2022/10/06 05:14:36;;;;;;;11.85;2.63;;;13.50;99.90;;;;;;4981258;28;20092;-86
2022/10/06 05:17:02;;;;;;;9.43;1.90;;;13.50;99.90;;;;;;4981066;28;20025;-85
2022/10/06 05:19:28;;;;;;;12.18;2.30;;;13.50;99.90;;;;;;4987111;28;20042;-83
2022/10/06 05:21:54;;;;;;;14.25;2.83;;;13.50;99.90;;;;;;4997767;28;20030;-85
2022/10/06 05:24:19;;;;;;;11.88;2.75;;;13.50;99.90;;;;;;4996772;28;20386;-86
2022/10/06 05:26:45;;;;;;;17.33;2.20;;;13.40;99.90;;;;;;5013139;28;20030;-86
2022/10/06 05:29:10;;;;;;;8.32;1.73;;;13.40;99.90;;;;;;4996502;28;20124;-87
2022/10/06 05:31:41;;;;;;;13.07;2.25;;;13.40;99.90;;;;;;4995388;28;20038;-86
2022/10/06 05:34:07;;;;;;;11.80;1.92;;;13.40;99.90;;;;;;5012822;28;20034;-86
2022/10/06 05:36:33;;;;;;;13.63;2.40;;;13.40;99.90;;;;;;4994981;28;20033;-85
2022/10/06 05:39:00;;;;;;;13.48;2.20;;;13.40;99.90;;;;;;4996320;28;20069;-85
2022/10/06 05:41:28;;;;;;;11.73;1.83;;;13.30;99.90;;;;;;4980346;28;20041;-85
2022/10/06 05:43:54;;;;;;;15.38;2.35;;;13.30;99.90;;;;;;4996463;28;20465;-86
2022/10/06 05:46:28;;;;;;;11.75;1.90;;;13.30;99.90;;;;;;5012884;28;20026;-85
2022/10/06 05:49:05;;;;;;;13.63;3.00;;;13.30;99.90;;;;;;5014625;28;20037;-86
2022/10/06 05:51:33;;;;;;;12.60;1.90;;;13.20;99.90;;;;;;4981716;28;20116;-90
2022/10/06 05:54:00;;;;;;;15.35;2.65;;;13.20;99.90;;;;;;4980462;28;20026;-85
2022/10/06 05:56:31;;;;;;;16.88;2.53;;;13.20;99.90;;;;;;5013710;28;20462;-85
2022/10/06 05:58:57;;;;;;;;;;;13.10;99.90;;;;;;5014575;28;20038;-87
2022/10/06 06:01:24;;;;;;;18.70;3.03;;;13.10;99.90;;;;;;5013176;28;19948;-86
2022/10/06 06:03:54;;;;;;;15.98;2.63;;;13.10;99.90;;;;;;5013100;28;20022;-87
2022/10/06 06:06:26;;;;;;;13.30;2.28;;;13.00;99.90;;;;;;5013013;28;20099;-85
2022/10/06 06:09:05;;;;;;;25.92;3.30;;;13.00;99.90;;;;;;4996120;28;20053;-84
2022/10/06 06:11:31;;;;;;;14.07;3.00;;;13.00;99.90;;;;;;4996427;28;20024;-84
2022/10/06 06:14:01;;;;;;;14.80;3.08;;;13.00;99.90;;;;;;4980218;28;20494;-85
2022/10/06 06:16:29;;;;;;;15.77;3.05;;;13.00;99.90;;;;;;4996519;28;20113;-85
2022/10/06 06:18:56;;;;;;;14.93;2.45;;;12.90;99.90;;;;;;4980912;28;20405;-90
2022/10/06 06:21:22;;;;;;;15.65;2.65;;;12.90;99.90;;;;;;4981460;28;20084;-89
2022/10/06 06:23:49;;;;;;;14.73;2.90;;;12.90;99.90;;;;;;4996911;28;20022;-90
2022/10/06 06:26:17;;;;;;;16.63;2.33;;;12.80;99.90;;;;;;4997115;28;20112;-89
2022/10/06 06:28:47;;;;;;;11.32;2.28;;;12.80;99.90;;;;;;4997341;28;20030;-95
2022/10/06 06:31:16;;;;;;;14.27;2.58;;;12.80;99.90;;;;;;5031160;28;20054;-93
2022/10/06 06:33:44;;;;;;;13.90;2.65;;;12.80;99.90;;;;;;4998002;28;20454;-92
2022/10/06 06:36:23;;;;;;;15.40;2.83;;;12.80;99.90;;;;;;4997546;28;20064;-93
2022/10/06 06:38:53;;;;;;;16.70;3.17;;;12.80;99.90;;;;;;4997899;28;20481;-92
2022/10/06 06:41:32;;;;;;;11.82;2.42;;;12.80;99.90;;;;;;4996332;28;20038;-94
2022/10/06 06:43:59;;;;;;;11.90;2.60;;;12.80;99.90;;;;;;5012614;28;20030;-93
2022/10/06 06:46:29;;;;;;;15.35;3.15;;;12.80;99.90;;;;;;4978487;28;20035;-93
2022/10/06 06:49:03;;;;;;;17.40;2.90;;;12.80;99.90;;;;;;5030974;28;20152;-94
2022/10/06 06:51:33;;;;;;;14.98;2.58;;;12.90;99.90;;;;;;4998934;28;20018;-92
2022/10/06 06:54:01;;;;;;;14.95;3.80;;;12.90;99.90;;;;;;4997895;28;20042;-90
2022/10/06 06:56:28;;;;;;;15.75;3.40;;;12.80;99.90;;;;;;4997526;28;20029;-91
2022/10/06 06:58:53;;;;;;;14.95;3.78;;;12.90;99.90;;;;;;4997571;28;20039;-91
2022/10/06 07:01:21;;;;;;;19.45;2.83;;;12.80;99.90;;;;;;4982467;28;20028;-90
2022/10/06 07:03:59;;;;;;;11.43;3.00;;;12.90;99.90;;;;;;4999208;28;20137;-91
2022/10/06 07:06:27;;;;;;;16.95;3.42;;;12.90;99.90;;;;;;4998444;28;20073;-91
2022/10/06 07:08:57;;;;;;;18.85;2.80;;;12.90;99.90;;;;;;5016768;28;20026;-93
2022/10/06 07:11:29;;;;;;;18.13;3.42;;;12.90;99.90;;;;;;5018235;28;20113;-91
2022/10/06 07:14:00;;;;;;;11.70;2.55;;;12.90;99.90;;;;;;4999301;28;20029;-92
2022/10/06 07:25:10;;;;;;;16.60;3.22;;;13.00;99.90;;;;;;5018072;28;20071;-92
2022/10/06 07:27:45;;;;;;;15.55;3.15;;;13.00;99.90;;;;;;5018040;28;20049;-93
2022/10/06 07:30:18;;;;;;;16.80;3.22;;;13.10;99.90;;;;;;5000765;28;20115;-92
2022/10/06 07:32:44;;;;;;;18.45;3.28;;;13.10;99.90;;;;;;5000057;28;20351;-91
2022/10/06 07:35:13;;;;;;;17.35;3.22;;;13.10;99.90;;;;;;5000230;28;20466;-92
2022/10/06 07:37:45;;;;;;;15.68;2.92;;;13.20;99.90;;;;;;5000074;28;20046;-92
2022/10/06 07:40:12;;;;;;;15.95;3.10;;;13.20;99.90;;;;;;5000041;28;20121;-92
2022/10/06 07:42:52;;;;;;;10.93;3.15;;;13.20;99.90;;;;;;5015958;28;20054;-92
2022/10/06 07:45:44;;;;;;;19.38;3.95;;;13.30;99.90;;;;;;5017821;28;20036;-92
2022/10/06 07:48:17;;;;;;;12.60;2.70;;;13.30;99.90;;;;;;5000216;28;20432;-93
2022/10/06 07:50:46;;;;;;;17.02;4.35;;;13.40;99.90;;;;;;5000344;28;20085;-93
2022/10/06 07:53:12;;;;;;;15.00;3.08;;;13.40;99.90;;;;;;5000234;28;20022;-93
2022/10/06 07:55:40;;;;;;;14.85;3.05;;;13.40;99.90;;;;;;4999828;28;20018;-92
2022/10/06 07:58:36;;;;;;;11.00;2.72;;;13.50;99.90;;;;;;4999062;28;20044;-94
2022/10/06 08:01:10;;;;;;;12.43;3.05;;;13.50;99.90;;;;;;4991157;28;20034;-93
2022/10/06 08:03:36;;;;;;;16.02;2.97;;;13.50;99.90;;;;;;5017121;28;20026;-91
2022/10/06 08:06:02;;;;;;;18.30;3.08;;;13.60;99.90;;;;;;4999317;28;20052;-94
2022/10/06 08:08:35;;;;;;;17.90;3.05;;;13.60;99.90;;;;;;4999762;28;20022;-92
2022/10/06 08:11:03;;;;;;;13.98;2.60;;;13.70;99.90;;;;;;4999391;28;20158;-93
2022/10/06 08:13:31;;;;;;;16.13;3.58;;;13.70;99.90;;;;;;4999362;28;20060;-92
2022/10/06 08:16:03;;;;;;;14.77;2.60;;;13.80;99.90;;;;;;4999485;28;20034;-86
2022/10/06 08:18:29;;;;;;;17.35;3.53;;;13.80;99.90;;;;;;4982547;28;20041;-91
2022/10/06 08:20:57;;;;;;;16.98;3.63;;;13.90;99.90;;;;;;5015372;28;20458;-90
2022/10/06 08:23:24;;;;;;;11.70;2.65;;;13.90;99.90;;;;;;5016343;28;20018;-91
2022/10/06 08:25:52;;;;;;;14.68;2.70;;;14.00;99.90;;;;;;4982824;28;20120;-89
2022/10/06 08:28:19;;;;;;;11.07;2.30;;;14.00;99.90;;;;;;4983192;28;20030;-90
2022/10/06 08:30:45;;;;;;;12.32;2.75;;;14.00;99.90;;;;;;4998967;28;20069;-89
2022/10/06 08:33:11;;;;;;;13.18;3.25;;;14.10;99.90;;;;;;5016260;28;20033;-90
2022/10/06 08:35:38;;;;;;;12.00;2.58;;;14.20;99.90;;;;;;4998876;28;20021;-89
2022/10/06 08:38:04;;;;;;;15.82;3.00;;;14.30;99.90;;;;;;5017093;28;20060;-90
2022/10/06 08:40:31;;;;;;;14.70;3.03;;;14.30;99.90;;;;;;5021110;28;20033;-95
2022/10/06 08:42:59;;;;;;;17.10;2.88;;;14.40;99.90;;;;;;4997160;28;20096;-93
2022/10/06 08:45:41;;;;;;;14.20;3.42;;;14.40;99.90;;;;;;5001361;28;20052;-94
2022/10/06 08:48:14;;;;;;;12.98;2.42;;;14.50;99.90;;;;;;4999014;28;20029;-95
2022/10/06 08:50:52;;;;;;;15.98;2.97;;;14.60;99.90;;;;;;4999403;28;20029;-94
2022/10/06 08:53:32;;;;;;;17.50;4.05;;;14.70;99.90;;;;;;5017795;28;20087;-94
2022/10/06 08:56:07;;;;;;;9.97;1.83;;;14.70;99.90;;;;;;5016260;28;20534;-93
2022/10/06 08:58:36;;;;;;;10.05;1.95;;;14.80;99.90;;;;;;5016037;28;20119;-90
2022/10/06 09:01:18;;;;;;;13.82;2.75;;;14.90;99.90;;;;;;5015020;28;20433;-91
2022/10/06 09:03:47;;;;;;;18.05;2.95;;;14.90;99.90;;;;;;5016093;28;20022;-91
2022/10/06 09:06:30;;;;;;;13.63;2.58;;;15.00;99.90;;;;;;4998425;28;20029;-91
2022/10/06 09:09:21;;;;;;;11.75;2.15;;;15.10;99.90;;;;;;4997941;28;20113;-93
2022/10/06 09:12:08;;;;;;;13.27;2.20;;;15.20;99.90;;;;;;4998491;28;20022;-90
2022/10/06 09:14:46;;;;;;;13.55;2.75;;;15.30;99.90;;;;;;5015873;28;20049;-91
2022/10/06 09:17:19;;;;;;;12.48;2.90;;;15.40;99.90;;;;;;5014826;28;20355;-91
2022/10/06 09:19:52;;;;;;;9.57;2.38;;;15.50;99.90;;;;;;4998368;28;20033;-93
2022/10/06 09:22:21;;;;;;;12.30;3.15;;;15.60;99.90;;;;;;5015534;28;20157;-93
2022/10/06 09:24:50;;;;;;;15.23;2.22;;;15.70;99.90;;;;;;4998368;28;20030;-94
2022/10/06 09:27:35;;;;;;;10.27;1.83;;;15.80;99.90;;;;;;4998074;28;20026;-92
2022/10/06 09:30:03;;;;;;;10.25;2.75;;;15.90;99.70;;;;;;5030698;28;20025;-94
2022/10/06 09:32:30;;;;;;;8.43;1.83;;;16.00;99.30;;;;;;4998022;28;20164;-93
2022/10/06 09:35:01;;;;;;;7.95;2.08;;;16.00;98.80;;;;;;4997656;28;20022;-94
2022/10/06 09:37:27;;;;;;;12.02;2.53;;;16.10;98.90;;;;;;4997682;28;20033;-92
2022/10/06 09:39:53;;;;;;;12.05;2.58;;;16.30;98.90;;;;;;5030604;28;20033;-93
2022/10/06 09:42:24;;;;;;;11.73;2.20;;;16.30;98.80;;;;;;5014710;28;20060;-93
2022/10/06 09:44:50;;;;;;;10.85;2.72;;;16.40;97.80;;;;;;5014391;28;20032;-94
2022/10/06 09:47:29;;;;;;;11.02;2.13;;;16.50;97.50;;;;;;5013920;28;20030;-94
2022/10/06 09:50:18;;;;;;;13.18;3.00;;;16.60;97.00;;;;;;5014336;28;20026;-92
2022/10/06 09:53:08;;;;;;;11.20;2.55;;;16.70;97.20;;;;;;5015354;28;20022;-94
2022/10/06 09:55:37;;;;;;;10.20;1.95;;;16.80;97.40;;;;;;5018432;28;20103;-93
2022/10/06 09:58:24;;;;;;;10.27;2.05;;;16.90;97.30;;;;;;5013945;28;20033;-95
2022/10/06 10:00:59;;;;;;;9.50;1.80;;;17.00;97.20;;;;;;5014211;28;20029;-94
2022/10/06 10:03:38;;;;;;;8.15;1.75;;;17.10;96.90;;;;;;4997815;28;20022;-92
2022/10/06 10:06:04;;;;;;;8.32;1.70;;;17.20;96.50;;;;;;5014726;28;20026;-93
2022/10/06 10:08:30;;;;;;;8.20;1.83;;;17.30;96.10;;;;;;4997880;28;20394;-87
2022/10/06 10:13:58;;;;;;;10.65;2.13;;;17.50;95.90;;;;;;5014666;28;20069;-88
2022/10/06 10:23:22;;;;;;;10.30;2.20;;;17.80;93.80;;;;;;5014233;28;20474;-89
2022/10/06 10:29:47;;;;;;;7.93;1.70;;;17.90;92.60;;;;;;5014833;28;20087;-88
2022/10/06 10:35:45;;;;;;;9.20;2.03;;;18.10;92.70;;;;;;5014685;28;20032;-89
2022/10/06 10:38:18;;;;;;;10.30;1.92;;;18.20;93.00;;;;;;4997374;28;20462;-89
2022/10/06 10:40:47;;;;;;;10.27;2.30;;;18.30;92.60;;;;;;5014748;28;20053;-88
2022/10/06 10:43:46;;;;;;;13.98;1.90;;;18.40;92.30;;;;;;5015178;28;20050;-88
2022/10/06 10:46:40;;;;;;;10.98;2.65;;;18.50;91.90;;;;;;4996816;28;20040;-88
2022/10/06 10:49:17;;;;;;;11.00;2.13;;;18.50;91.80;;;;;;4996330;28;20029;-87
2022/10/06 10:51:52;;;;;;;8.93;1.80;;;18.60;92.10;;;;;;4996684;28;20018;-88
2022/10/06 10:54:46;;;;;;;8.18;1.73;;;18.60;91.90;;;;;;5014055;28;20026;-87
2022/10/06 10:57:16;;;;;;;10.02;1.80;;;18.80;91.70;;;;;;4996553;28;20061;-89
2022/10/06 11:00:02;;;;;;;9.73;2.05;;;18.90;91.80;;;;;;5014467;28;20033;-89
2022/10/06 11:02:50;;;;;;;13.48;2.33;;;19.00;91.40;;;;;;5013223;28;20033;-90
2022/10/06 11:05:47;;;;;;;6.53;1.50;;;19.00;91.20;;;;;;4996960;28;20053;-91
2022/10/06 11:08:24;;;;;;;9.32;2.33;;;19.10;91.20;;;;;;5013181;28;20056;-91
2022/10/06 11:10:55;;;;;;;12.00;2.13;;;19.30;91.00;;;;;;4997353;28;20033;-90
2022/10/06 11:13:38;;;;;;;;;;;19.30;90.50;;;;;;4996890;28;20026;-91
2022/10/06 11:16:15;;;;;;;10.45;2.20;;;19.40;90.20;;;;;;4996793;28;20341;-90
2022/10/06 11:19:46;;;;;;;10.63;1.83;;;19.50;89.70;;;;;;5013715;28;20045;-92
2022/10/06 11:22:28;;;;;;;7.32;1.98;;;19.50;89.10;;;;;;4992437;28;20045;-90
2022/10/06 11:25:24;;;;;;;10.25;1.73;;;19.60;88.60;;;;;;4976546;28;20033;-90
2022/10/06 11:28:09;;;;;;;8.20;1.50;;;19.60;88.10;;;;;;5008971;28;20474;-91
2022/10/06 11:30:47;;;;;;;8.75;1.77;;;19.70;87.60;;;;;;5012878;28;20478;-92
2022/10/06 11:33:19;;;;;;;5.85;1.58;;;19.70;86.70;;;;;;4998582;28;20385;-91
2022/10/06 11:35:47;;;;;;;9.48;2.15;;;19.80;84.40;;;;;;5017765;28;20026;-91
2022/10/06 11:41:42;;;;;;;12.20;1.98;;;19.70;84.20;;;;;;5017504;28;20477;-90
2022/10/06 11:44:43;;;;;;;8.18;1.77;;;19.70;85.50;;;;;;5016094;28;20045;-91
2022/10/06 11:50:45;;;;;;;6.82;1.83;;;19.70;85.20;;;;;;4990848;28;19911;-88
2022/10/06 11:53:35;;;;;;;9.02;1.73;;;19.80;84.70;;;;;;5016653;28;20018;-88
2022/10/06 11:56:16;;;;;;;5.72;1.33;;;19.80;84.40;;;;;;5017224;28;20037;-88
2022/10/06 11:58:54;;;;;;;8.70;1.85;;;19.80;84.40;;;;;;5016120;28;20033;-89
2022/10/06 12:01:37;;;;;;;9.30;1.92;;;19.90;82.70;;;;;;5016813;28;20076;-89
2022/10/06 12:04:09;;;;;;;8.10;2.08;;;20.00;83.60;;;;;;5015733;28;20034;-89
2022/10/06 12:06:44;;;;;;;10.80;2.22;;;20.00;82.70;;;;;;5015794;28;20030;-88
2022/10/06 12:09:29;;;;;;;7.95;1.63;;;20.10;82.60;;;;;;5015681;28;20060;-88
2022/10/06 12:12:13;;;;;;;10.45;1.85;;;20.10;82.20;;;;;;5015720;28;20413;-88
2022/10/06 12:18:03;;;;;;;8.77;1.90;;;20.20;83.50;;;;;;5022191;28;20037;-87
2022/10/06 12:20:39;;;;;;;12.07;1.98;;;20.30;82.70;;;;;;5017850;28;20030;-88
2022/10/06 12:23:08;;;;;;;8.02;1.67;;;20.30;81.60;;;;;;4999387;28;20110;-90
2022/10/06 12:25:59;;;;;;;7.32;1.95;;;20.40;79.50;;;;;;5015718;28;20101;-89
2022/10/06 12:28:42;;;;;;;8.40;1.65;;;20.50;80.30;;;;;;5016477;28;20097;-88
2022/10/06 12:31:30;;;;;;;6.90;1.55;;;20.50;79.80;;;;;;4999047;28;20026;-88
2022/10/06 12:33:55;;;;;;;9.27;1.65;;;20.50;79.60;;;;;;5015760;28;20084;-91
2022/10/06 12:36:27;;;;;;;9.68;2.10;;;20.50;79.70;;;;;;4967259;28;20030;-89
2022/10/06 12:42:26;;;;;;;8.32;1.88;;;20.60;80.10;;;;;;5016353;28;20049;-89
2022/10/06 12:44:52;;;;;;;8.80;2.22;;;20.70;80.60;;;;;;5015054;28;20149;-89
2022/10/06 12:47:26;;;;;;;8.05;1.70;;;20.70;81.20;;;;;;4966726;28;20022;-89
2022/10/06 12:50:02;;;;;;;6.15;2.13;;;20.70;81.40;;;;;;4999542;28;20111;-88
2022/10/06 12:52:50;;;;;;;8.57;1.65;;;20.80;80.90;;;;;;5016167;28;20607;-88
2022/10/06 12:55:40;;;;;;;7.03;1.63;;;20.90;81.00;;;;;;4998772;28;20026;-89
2022/10/06 12:58:16;;;;;;;8.23;1.75;;;20.90;78.70;;;;;;4997841;28;20029;-85
2022/10/06 13:00:42;;;;;;;10.90;2.00;;;20.90;78.40;;;;;;5013544;28;20026;-85
2022/10/06 13:03:17;;;;;;;8.50;1.67;;;20.90;77.20;;;;;;4979971;28;20030;-85
2022/10/06 13:05:54;;;;;;;7.75;1.67;;;20.90;77.90;;;;;;5014011;28;20465;-85
2022/10/06 13:08:22;;;;;;;7.53;1.70;;;20.90;76.40;;;;;;5014069;28;20120;-85
2022/10/06 13:10:47;;;;;;;8.52;1.70;;;20.90;76.80;;;;;;5014308;28;20436;-86
2022/10/06 13:13:23;;;;;;;7.05;1.40;;;21.00;75.60;;;;;;5013116;28;20026;-85
2022/10/06 13:15:54;;;;;;;6.25;1.83;;;21.00;75.30;;;;;;5013329;28;20029;-85
2022/10/06 13:18:22;;;;;;;6.15;1.70;;;21.00;75.50;;;;;;5013563;28;20544;-85
2022/10/06 13:20:52;;;;;;;5.40;1.50;;;21.00;73.10;;;;;;5014741;28;20030;-84
2022/10/06 13:23:34;;;;;;;5.05;1.23;;;21.00;73.40;;;;;;4997470;28;20176;-85
2022/10/06 13:26:15;;;;;;;7.93;2.00;;;20.90;71.60;;;;;;4997116;28;20014;-85
2022/10/06 13:28:43;;;;;;;;;;;20.80;71.70;;;;;;5014828;28;20030;-86
2022/10/06 13:31:34;;;;;;;11.60;1.55;;;20.80;70.70;;;;;;5014605;28;19906;-85
2022/10/06 13:34:11;;;;;;;7.40;2.55;;;20.70;71.60;;;;;;4996980;28;20470;-85
2022/10/06 13:36:39;;;;;;;6.68;1.90;;;20.70;71.80;;;;;;4996914;28;20109;-86
2022/10/06 13:39:12;;;;;;;6.22;1.48;;;20.70;71.70;;;;;;4996576;28;20034;-85
2022/10/06 13:41:48;;;;;;;6.13;1.50;;;20.70;71.30;;;;;;4993287;28;20467;-85
2022/10/06 13:44:17;;;;;;;6.85;1.27;;;20.80;71.30;;;;;;4993494;28;20029;-85